TimeCST,TemperatureF,Dew PointF,Humidity,Sea Level PressureIn,VisibilityMPH,Wind Direction,Wind SpeedMPH,Gust SpeedMPH,PrecipitationIn,Events,Conditions,WindDirDegrees,DateUTC
12:15 AM,24.6,24.4,99,29.49,0.8,NNW,16.1,20.7,0.01,,Overcast,330,2012-01-23 06:15:00
12:35 AM,23.9,23.7,99,29.50,0.8,NNW,17.3,23.0,0.01,,Overcast,330,2012-01-23 06:35:00
12:55 AM,23.9,23.5,99,29.50,1.0,NNW,16.1,-,0.01,,Overcast,330,2012-01-23 06:55:00
1:15 AM,23.9,23.4,98,29.51,2.5,NNW,16.1,19.6,N/A,,Overcast,330,2012-01-23 07:15:00
1:35 AM,23.9,23.0,96,29.51,1.2,NNW,16.1,-,N/A,,Overcast,330,2012-01-23 07:35:00
1:55 AM,23.9,23.2,97,29.52,1.0,NW,13.8,-,N/A,,Overcast,320,2012-01-23 07:55:00
2:15 AM,23.7,23.0,97,29.53,1.8,NW,19.6,-,N/A,,Overcast,320,2012-01-23 08:15:00
2:35 AM,23.7,23.0,97,29.55,4.0,NW,19.6,24.2,N/A,,Overcast,320,2012-01-23 08:35:00
2:55 AM,23.9,22.6,95,29.56,4.0,NW,17.3,26.5,N/A,,Overcast,320,2012-01-23 08:55:00
3:15 AM,23.9,22.5,94,29.57,4.0,NW,17.3,26.5,N/A,,Overcast,320,2012-01-23 09:15:00
3:35 AM,23.9,22.1,93,29.57,4.0,NW,20.7,29.9,N/A,,Overcast,320,2012-01-23 09:35:00
3:55 AM,23.7,22.1,94,29.57,3.0,NW,18.4,-,N/A,,Overcast,310,2012-01-23 09:55:00
4:15 AM,23.5,22.3,95,29.58,3.0,NW,20.7,27.6,N/A,,Overcast,310,2012-01-23 10:15:00
4:35 AM,23.2,21.9,95,29.59,4.0,NW,21.9,29.9,N/A,,Overcast,320,2012-01-23 10:35:00
4:55 AM,23.0,21.7,95,29.60,4.0,NW,24.2,29.9,N/A,,Overcast,310,2012-01-23 10:55:00
5:15 AM,23.2,21.7,94,29.60,4.0,NW,21.9,28.8,N/A,,Overcast,320,2012-01-23 11:15:00
5:35 AM,22.1,20.3,93,29.62,3.0,NW,23.0,32.2,N/A,,Overcast,320,2012-01-23 11:35:00
5:55 AM,21.6,19.6,92,29.63,4.0,NW,25.3,32.2,N/A,,Overcast,320,2012-01-23 11:55:00
6:35 AM,20.8,18.9,92,29.65,2.0,NW,23.0,32.2,N/A,,Overcast,320,2012-01-23 12:35:00
6:55 AM,20.3,18.9,94,29.65,2.0,NW,24.2,31.1,N/A,,Overcast,310,2012-01-23 12:55:00
7:15 AM,19.9,18.3,93,29.66,2.5,NW,20.7,28.8,N/A,,Overcast,310,2012-01-23 13:15:00
7:35 AM,19.4,17.8,93,29.66,3.0,NW,21.9,27.6,N/A,,Overcast,310,2012-01-23 13:35:00
8:15 AM,19.9,18.0,92,29.69,5.0,NW,20.7,-,N/A,,Overcast,310,2012-01-23 14:15:00
8:35 AM,19.4,17.4,92,29.70,5.0,NW,19.6,-,N/A,,Overcast,310,2012-01-23 14:35:00
8:55 AM,19.2,16.9,91,29.71,4.0,NW,24.2,27.6,N/A,,Overcast,310,2012-01-23 14:55:00
9:15 AM,19.0,16.7,91,29.72,4.0,NW,21.9,28.8,N/A,,Overcast,310,2012-01-23 15:15:00
9:35 AM,19.4,16.9,90,29.73,5.0,WNW,21.9,-,N/A,,Overcast,300,2012-01-23 15:35:00
9:55 AM,19.4,17.1,91,29.75,4.0,WNW,20.7,27.6,N/A,,Overcast,300,2012-01-23 15:55:00
10:15 AM,19.4,17.1,91,29.76,5.0,WNW,20.7,27.6,N/A,,Overcast,300,2012-01-23 16:15:00
10:35 AM,19.4,17.4,92,29.77,3.0,WNW,23.0,-,N/A,,Overcast,300,2012-01-23 16:35:00
10:55 AM,19.4,17.4,92,29.77,4.0,WNW,19.6,-,N/A,,Overcast,300,2012-01-23 16:55:00
12:15 PM,19.9,17.6,91,29.77,5.0,WNW,23.0,-,N/A,,Overcast,300,2012-01-23 18:15:00
12:55 PM,20.3,17.8,90,29.77,5.0,WNW,24.2,-,N/A,,Overcast,290,2012-01-23 18:55:00
1:15 PM,20.1,17.6,90,29.78,5.0,WNW,24.2,-,N/A,,Overcast,290,2012-01-23 19:15:00
1:35 PM,19.9,17.4,90,29.80,5.0,WNW,23.0,-,N/A,,Overcast,290,2012-01-23 19:35:00
1:55 PM,19.9,17.4,90,29.81,5.0,WNW,23.0,27.6,N/A,,Overcast,290,2012-01-23 19:55:00
2:15 PM,19.9,17.4,90,29.82,5.0,WNW,23.0,-,N/A,,Overcast,290,2012-01-23 20:15:00
2:35 PM,19.9,17.4,90,29.82,5.0,WNW,19.6,23.0,N/A,,Overcast,290,2012-01-23 20:35:00
2:55 PM,19.9,17.4,90,29.83,5.0,WNW,18.4,-,N/A,,Overcast,300,2012-01-23 20:55:00
3:15 PM,19.9,17.2,89,29.84,5.0,WNW,20.7,24.2,N/A,,Overcast,300,2012-01-23 21:15:00
3:35 PM,19.8,17.1,89,29.83,5.0,WNW,19.6,-,N/A,,Overcast,290,2012-01-23 21:35:00
3:55 PM,19.6,16.7,89,29.84,5.0,WNW,20.7,27.6,N/A,,Overcast,290,2012-01-23 21:55:00
4:15 PM,19.4,16.7,89,29.85,7.0,WNW,23.0,-,N/A,,Overcast,290,2012-01-23 22:15:00
4:35 PM,19.4,16.5,89,29.87,7.0,WNW,18.4,26.5,N/A,,Overcast,300,2012-01-23 22:35:00
4:55 PM,19.4,16.3,88,29.88,10.0,WNW,18.4,-,N/A,,Overcast,290,2012-01-23 22:55:00
5:15 PM,19.4,16.2,87,29.89,10.0,WNW,17.3,-,N/A,,Overcast,290,2012-01-23 23:15:00
5:35 PM,19.4,16.5,89,29.90,7.0,WNW,18.4,-,N/A,,Overcast,290,2012-01-23 23:35:00
5:55 PM,19.4,16.5,89,29.91,10.0,WNW,17.3,-,N/A,,Overcast,290,2012-01-23 23:55:00
6:15 PM,19.4,16.5,89,29.92,10.0,WNW,15.0,-,N/A,,Overcast,300,2012-01-24 00:15:00
6:35 PM,19.4,16.5,89,29.92,10.0,WNW,15.0,-,N/A,,Overcast,290,2012-01-24 00:35:00
6:55 PM,19.4,16.3,88,29.94,10.0,WNW,16.1,-,N/A,,Overcast,290,2012-01-24 00:55:00
7:15 PM,19.4,16.3,88,29.94,10.0,WNW,13.8,-,N/A,,Overcast,300,2012-01-24 01:15:00
7:35 PM,19.4,16.3,88,29.94,10.0,WNW,13.8,-,N/A,,Overcast,300,2012-01-24 01:35:00
7:55 PM,19.4,16.5,89,29.95,10.0,WNW,13.8,-,N/A,,Overcast,300,2012-01-24 01:55:00
8:15 PM,19.4,16.5,89,29.95,7.0,NW,10.4,-,N/A,,Overcast,310,2012-01-24 02:15:00
8:35 PM,19.4,16.7,89,29.96,7.0,WNW,11.5,-,N/A,,Overcast,300,2012-01-24 02:35:00
8:55 PM,19.4,16.7,89,29.97,7.0,WNW,11.5,-,N/A,,Overcast,300,2012-01-24 02:55:00
9:35 PM,19.4,17.1,91,29.97,7.0,WNW,12.7,-,N/A,,Overcast,300,2012-01-24 03:35:00
9:55 PM,19.8,16.7,88,29.98,7.0,WNW,12.7,-,N/A,,Overcast,300,2012-01-24 03:55:00
10:15 PM,19.9,17.1,89,29.98,7.0,WNW,12.7,-,N/A,,Overcast,290,2012-01-24 04:15:00
10:35 PM,19.9,17.2,89,29.99,7.0,WNW,10.4,-,N/A,,Overcast,300,2012-01-24 04:35:00
10:55 PM,19.9,17.2,89,29.99,7.0,WNW,12.7,-,N/A,,Overcast,290,2012-01-24 04:55:00
11:15 PM,20.1,17.4,89,30.00,10.0,WNW,10.4,-,N/A,,Overcast,300,2012-01-24 05:15:00
11:35 PM,20.3,17.1,87,30.00,10.0,WNW,15.0,-,N/A,,Overcast,290,2012-01-24 05:35:00
11:55 PM,20.1,17.1,88,30.00,10.0,WNW,11.5,-,N/A,,Overcast,290,2012-01-24 05:55:00